Hovedside
METAR-TAF:

METAR-TAF

Lufthavner :

Pohnpei, Mikronesia

breddegrad: 06-59N, lengdegrad: 158-12E, høyde over havet: 2 m

Gjeldene værobservasjon

Denne rapporten ble laget for 31 minutter siden, klokken 23:54 UTC
Vind 11 kt fra Øst
Temperatur 31°C
Luftfuktighet 75%
Trykk 1011 hPa
Sikt: 24.1 km
Spredte skyer i en høyde av 1800 ft, Tårnskyer (cumulus).
Brutte skyer i en høyde av 30000 ft

METAR: PTPN 152354Z 08011KT 15SM SCT018TCU BKN300 31/26 A2986 RMK TCU OHD AND SE

Tid: 11:25 (00:25 UTC)

Varsel

Denne rapporten ble laget for 1 time og 1 minutter siden, klokken 23:24 UTC
Varsel gyldig fra 16. klokken 00 UTC til 16. klokken 24 UTC
Vind 11 kt fra Øst
Sikt: 10 km
Spredte skyer i en høyde av 1800 ft
Spredte skyer i en høyde av 13000 ft
byger på avstand,

TAF: PTPN 152324Z 1600/1624 08011KT P6SM VCSH SCT018 SCT130

Værobservasjoner og værvarsel for over 4000 flyplasser (METAR- og TAF-rapporter).

Tilgjengelige stasjoner er representert av de røde og gule prikkene på kartet.

Hold musepekeren over prikken for å se navnet på stasjonen.

Klikk så for å se værobservasjoner og -varsler.

For å forandre kartet kan du klikke på den grønne knappen med svart kryss for å zoome inn, på den grønne knappen med strek for å zoome ut, eller på de grønne pilene for å se tilstøtende kart.


METAR-TAF: